Time;durP1;ratioP1;P1;durP2;ratioP2;P2;SDS_P1;SDS_P2;PMS_P1;PMS_P2;Temp;Humidity;BMP_temperature;BMP_pressure;BME280_temperature;BME280_humidity;BME280_pressure;Samples;Min_cycle;Max_cycle;Signal;HPM_P1;HPM_P2
2021/12/25 00:01:48;;;;;;;13.63;6.40;;;;;;;;;;5071323;28;20086;-67
2021/12/25 00:04:14;;;;;;;10.57;6.25;;;;;;;;;;5070081;28;20028;-69
2021/12/25 00:06:40;;;;;;;11.30;6.85;;;;;;;;;;5071405;28;20067;-65
2021/12/25 00:09:06;;;;;;;10.77;6.70;;;;;;;;;;5071515;28;20158;-69
2021/12/25 00:11:33;;;;;;;13.23;7.30;;;;;;;;;;5071275;28;20032;-68
2021/12/25 00:13:59;;;;;;;12.63;6.85;;;;;;;;;;5069802;28;20028;-70
2021/12/25 00:16:25;;;;;;;13.13;7.45;;;;;;;;;;5071188;28;20048;-68
2021/12/25 00:18:51;;;;;;;10.05;6.63;;;;;;;;;;5071484;28;20021;-65
2021/12/25 00:21:17;;;;;;;12.23;7.15;;;;;;;;;;5071122;28;20071;-71
2021/12/25 00:23:43;;;;;;;10.75;6.32;;;;;;;;;;5071127;28;20175;-71
2021/12/25 00:26:26;;;;;;;12.07;7.10;;;;;;;;;;5072224;28;20035;-71
2021/12/25 00:29:00;;;;;;;12.93;7.57;;;;;;;;;;5074980;28;20019;-65
2021/12/25 00:31:46;;;;;;;10.73;7.38;;;;;;;;;;5073742;28;20024;-71
2021/12/25 00:34:14;;;;;;;11.82;7.28;;;;;;;;;;5073507;28;20112;-68
2021/12/25 00:36:40;;;;;;;15.00;7.07;;;;;;;;;;5074867;28;20031;-69
2021/12/25 00:39:06;;;;;;;10.73;7.00;;;;;;;;;;5074726;28;20052;-71
2021/12/25 00:41:33;;;;;;;11.35;6.90;;;;;;;;;;5074721;28;20055;-70
2021/12/25 00:43:59;;;;;;;10.68;6.63;;;;;;;;;;5074580;28;20017;-71
2021/12/25 00:46:25;;;;;;;11.68;7.22;;;;;;;;;;5074788;28;20608;-70
2021/12/25 00:48:51;;;;;;;9.90;7.13;;;;;;;;;;5074616;28;20025;-69
2021/12/25 00:51:17;;;;;;;10.88;6.95;;;;;;;;;;5074319;28;20108;-70
2021/12/25 00:53:43;;;;;;;11.88;7.32;;;;;;;;;;5074238;28;20017;-69
2021/12/25 00:56:09;;;;;;;11.07;6.88;;;;;;;;;;5074227;28;20028;-70
2021/12/25 00:58:35;;;;;;;11.98;7.38;;;;;;;;;;5074110;28;20020;-67
2021/12/25 01:01:01;;;;;;;11.63;7.30;;;;;;;;;;5082549;28;20118;-71
2021/12/25 01:03:27;;;;;;;10.80;7.20;;;;;;;;;;5093040;28;20017;-71
2021/12/25 01:05:54;;;;;;;11.80;7.65;;;;;;;;;;5094484;28;20579;-70
2021/12/25 01:08:20;;;;;;;12.15;7.25;;;;;;;;;;5094489;28;20183;-68
2021/12/25 01:10:46;;;;;;;12.32;6.93;;;;;;;;;;5093192;28;20024;-70
2021/12/25 01:13:20;;;;;;;12.48;7.38;;;;;;;;;;5094535;28;20108;-68
2021/12/25 01:48:12;;;;;;;10.73;6.75;;;;;;;;;;5053842;28;20050;-65
2021/12/25 01:50:38;;;;;;;11.35;6.68;;;;;;;;;;5073783;28;20035;-71
2021/12/25 01:53:04;;;;;;;10.82;6.95;;;;;;;;;;5073574;28;20609;-68
2021/12/25 01:55:30;;;;;;;10.57;7.53;;;;;;;;;;5073562;28;20079;-65
2021/12/25 01:57:58;;;;;;;11.60;7.22;;;;;;;;;;5073306;28;20048;-65
2021/12/25 02:00:26;;;;;;;10.23;6.82;;;;;;;;;;5073413;28;20024;-71
2021/12/25 02:02:52;;;;;;;10.77;6.63;;;;;;;;;;5073287;28;20028;-71
2021/12/25 02:05:18;;;;;;;9.85;6.35;;;;;;;;;;5073371;28;20362;-65
2021/12/25 02:07:44;;;;;;;11.40;7.00;;;;;;;;;;5075846;28;20458;-69
2021/12/25 02:10:11;;;;;;;12.00;7.10;;;;;;;;;;5093548;28;20023;-67
2021/12/25 02:12:38;;;;;;;11.68;6.75;;;;;;;;;;5092087;28;20124;-70
2021/12/25 02:15:10;;;;;;;9.30;6.53;;;;;;;;;;5092220;28;20056;-65
2021/12/25 02:18:08;;;;;;;12.57;6.60;;;;;;;;;;5092968;28;20062;-65
2021/12/25 02:20:30;;;;;;;9.85;6.18;;;;;;;;;;5092769;28;20640;-65
2021/12/25 02:23:02;;;;;;;11.38;7.05;;;;;;;;;;5093215;28;20056;-65
2021/12/25 02:25:29;;;;;;;10.33;6.37;;;;;;;;;;5091846;28;20035;-66
2021/12/25 02:27:55;;;;;;;11.95;6.53;;;;;;;;;;5093108;28;20376;-71
2021/12/25 02:30:21;;;;;;;9.55;6.03;;;;;;;;;;5093000;28;20016;-70
2021/12/25 02:32:47;;;;;;;10.60;7.05;;;;;;;;;;5092771;28;20112;-64
2021/12/25 02:35:14;;;;;;;10.43;6.60;;;;;;;;;;5092960;28;20020;-66
2021/12/25 02:37:40;;;;;;;11.43;7.00;;;;;;;;;;5092697;28;20024;-65
2021/12/25 02:40:07;;;;;;;13.32;6.80;;;;;;;;;;5092908;28;20477;-65
2021/12/25 02:42:34;;;;;;;13.73;6.63;;;;;;;;;;5092818;28;20511;-71
2021/12/25 02:45:01;;;;;;;10.77;6.85;;;;;;;;;;5092706;28;20099;-70
2021/12/25 02:47:30;;;;;;;10.73;7.18;;;;;;;;;;5092826;28;20028;-67
2021/12/25 02:49:56;;;;;;;9.20;6.63;;;;;;;;;;5091529;28;20365;-68
2021/12/25 02:52:22;;;;;;;9.48;5.97;;;;;;;;;;5092893;28;20050;-71
2021/12/25 02:54:48;;;;;;;9.50;5.93;;;;;;;;;;5092887;28;20028;-65
2021/12/25 02:57:14;;;;;;;11.60;7.20;;;;;;;;;;5092770;28;20074;-64
2021/12/25 02:59:41;;;;;;;8.57;5.18;;;;;;;;;;5091397;28;20028;-68
2021/12/25 03:02:08;;;;;;;9.80;6.20;;;;;;;;;;5092529;28;20047;-65
2021/12/25 03:04:36;;;;;;;9.02;5.65;;;;;;;;;;5092725;28;20187;-65
2021/12/25 03:07:02;;;;;;;8.90;5.72;;;;;;;;;;5080485;28;20037;-65
2021/12/25 03:09:28;;;;;;;9.63;6.20;;;;;;;;;;5072285;28;20012;-65
2021/12/25 03:11:54;;;;;;;9.43;6.22;;;;;;;;;;5072170;28;20028;-65
2021/12/25 03:14:34;;;;;;;9.45;6.00;;;;;;;;;;5072258;28;20645;-71
2021/12/25 03:17:00;;;;;;;8.55;5.47;;;;;;;;;;5071949;28;20048;-65
2021/12/25 03:19:31;;;;;;;8.25;5.15;;;;;;;;;;5071972;28;20151;-65
2021/12/25 03:21:58;;;;;;;9.65;5.60;;;;;;;;;;5070815;28;20043;-65
2021/12/25 03:24:25;;;;;;;8.50;5.43;;;;;;;;;;5071988;28;20062;-64
2021/12/25 03:26:54;;;;;;;8.77;5.63;;;;;;;;;;5071881;28;20036;-68
2021/12/25 03:29:21;;;;;;;8.05;5.32;;;;;;;;;;5072095;28;20100;-72
2021/12/25 03:31:47;;;;;;;9.07;5.20;;;;;;;;;;5072029;28;20050;-64
2021/12/25 03:34:13;;;;;;;9.23;5.30;;;;;;;;;;5071932;28;20021;-65
2021/12/25 03:36:39;;;;;;;9.15;5.22;;;;;;;;;;5071953;28;20050;-65
2021/12/25 03:39:06;;;;;;;7.68;5.22;;;;;;;;;;5070700;28;20024;-69
2021/12/25 03:41:32;;;;;;;8.43;5.20;;;;;;;;;;5071976;28;20485;-66
2021/12/25 03:44:00;;;;;;;7.60;5.10;;;;;;;;;;5071910;28;20021;-72
2021/12/25 03:46:28;;;;;;;6.93;4.78;;;;;;;;;;5072083;28;20116;-66
2021/12/25 03:59:36;;;;;;;6.60;4.35;;;;;;;;;;5072197;28;20043;-65
2021/12/25 04:02:08;;;;;;;7.53;4.82;;;;;;;;;;5074059;28;20036;-70
2021/12/25 04:04:37;;;;;;;6.80;4.32;;;;;;;;;;5075861;28;20099;-69
2021/12/25 04:09:33;;;;;;;7.55;4.40;;;;;;;;;;5075555;28;20024;-69
2021/12/25 04:12:03;;;;;;;6.63;4.00;;;;;;;;;;5075404;28;20023;-70
2021/12/25 04:14:29;;;;;;;6.93;4.05;;;;;;;;;;5075378;28;20028;-63
2021/12/25 04:16:55;;;;;;;6.65;4.03;;;;;;;;;;5075270;28;20063;-64
2021/12/25 04:19:22;;;;;;;7.22;4.55;;;;;;;;;;5075500;28;20042;-63
2021/12/25 04:21:55;;;;;;;7.28;4.60;;;;;;;;;;5075359;28;20036;-63
2021/12/25 04:24:22;;;;;;;6.85;4.30;;;;;;;;;;5075398;28;20385;-64
2021/12/25 04:26:49;;;;;;;7.90;4.40;;;;;;;;;;5075136;28;20025;-64
2021/12/25 04:42:51;;;;;;;8.55;5.05;;;;;;;;;;5075082;28;20039;-64
2021/12/25 05:01:49;;;;;;;7.47;4.55;;;;;;;;;;5074655;28;20047;-67
2021/12/25 05:06:48;;;;;;;7.25;4.53;;;;;;;;;;5073944;28;20029;-64
2021/12/25 05:09:15;;;;;;;7.97;4.57;;;;;;;;;;5074485;28;20154;-63
2021/12/25 05:11:41;;;;;;;7.85;4.50;;;;;;;;;;5074739;28;20096;-66
2021/12/25 05:14:07;;;;;;;6.93;4.68;;;;;;;;;;5073338;28;20029;-64
2021/12/25 05:16:33;;;;;;;7.28;4.63;;;;;;;;;;5074278;28;20064;-65
2021/12/25 05:18:59;;;;;;;9.40;4.93;;;;;;;;;;5074431;28;20024;-64
2021/12/25 05:21:26;;;;;;;7.38;4.65;;;;;;;;;;5072695;28;20045;-64
2021/12/25 05:23:52;;;;;;;7.72;4.43;;;;;;;;;;5074294;28;20051;-65
2021/12/25 05:26:19;;;;;;;7.75;4.75;;;;;;;;;;5074156;28;20044;-64
2021/12/25 05:28:52;;;;;;;7.60;4.18;;;;;;;;;;5074196;28;20021;-63
2021/12/25 05:31:18;;;;;;;8.43;4.50;;;;;;;;;;5074221;28;20032;-66
2021/12/25 05:33:44;;;;;;;7.38;4.53;;;;;;;;;;5073988;28;20027;-64
2021/12/25 05:36:11;;;;;;;6.82;4.35;;;;;;;;;;5073994;28;20500;-64
2021/12/25 05:38:37;;;;;;;7.50;4.38;;;;;;;;;;5073786;28;20009;-63
2021/12/25 05:41:04;;;;;;;8.88;4.95;;;;;;;;;;5074186;28;20028;-64
2021/12/25 05:43:30;;;;;;;13.15;5.45;;;;;;;;;;5073950;28;20044;-64
2021/12/25 05:45:56;;;;;;;13.20;6.03;;;;;;;;;;5074274;28;20385;-63
2021/12/25 05:48:22;;;;;;;11.23;5.85;;;;;;;;;;5073880;28;20076;-64
2021/12/25 05:50:49;;;;;;;10.90;5.47;;;;;;;;;;5073835;28;20477;-63
2021/12/25 05:53:15;;;;;;;12.50;5.45;;;;;;;;;;5073499;28;20016;-64
2021/12/25 05:55:41;;;;;;;11.25;5.03;;;;;;;;;;5073581;28;20589;-67
2021/12/25 05:58:09;;;;;;;9.93;4.95;;;;;;;;;;5072063;28;20343;-64
2021/12/25 06:00:36;;;;;;;10.13;4.70;;;;;;;;;;5073408;28;20021;-64
2021/12/25 06:03:03;;;;;;;9.38;4.68;;;;;;;;;;5072016;28;20029;-65
2021/12/25 06:05:30;;;;;;;9.45;4.78;;;;;;;;;;5073609;28;20133;-64
2021/12/25 06:07:56;;;;;;;9.57;5.20;;;;;;;;;;5073494;28;20036;-63
2021/12/25 06:10:23;;;;;;;8.10;4.45;;;;;;;;;;5073531;28;20596;-63
2021/12/25 06:12:53;;;;;;;8.73;5.00;;;;;;;;;;5073515;28;20385;-64
2021/12/25 06:15:20;;;;;;;7.28;4.22;;;;;;;;;;5073343;28;20465;-64
2021/12/25 06:17:46;;;;;;;8.40;4.38;;;;;;;;;;5072876;28;20072;-63
2021/12/25 06:20:13;;;;;;;10.18;4.40;;;;;;;;;;5073037;28;20055;-64
2021/12/25 06:22:39;;;;;;;9.48;4.55;;;;;;;;;;5071789;28;20127;-63
2021/12/25 06:25:06;;;;;;;7.65;4.07;;;;;;;;;;5072693;28;20025;-67
2021/12/25 06:27:32;;;;;;;9.32;4.30;;;;;;;;;;5072755;28;20024;-64
2021/12/25 06:29:59;;;;;;;9.23;3.78;;;;;;;;;;5071737;28;20358;-64
2021/12/25 06:32:25;;;;;;;10.10;4.05;;;;;;;;;;5072848;28;20107;-64
2021/12/25 06:34:51;;;;;;;8.80;4.88;;;;;;;;;;5072944;28;20069;-64
2021/12/25 06:37:18;;;;;;;8.00;4.10;;;;;;;;;;5072910;28;20381;-63
2021/12/25 06:39:45;;;;;;;6.25;3.75;;;;;;;;;;5072906;28;20021;-65
2021/12/25 06:42:12;;;;;;;7.70;3.70;;;;;;;;;;5072427;28;20028;-64
2021/12/25 06:44:38;;;;;;;6.85;3.70;;;;;;;;;;5072281;28;20020;-63
2021/12/25 06:47:04;;;;;;;7.55;3.75;;;;;;;;;;5071261;28;20074;-63
2021/12/25 06:49:30;;;;;;;9.52;4.10;;;;;;;;;;5072631;28;20539;-65
2021/12/25 06:51:56;;;;;;;7.00;3.70;;;;;;;;;;5072573;28;20075;-64
2021/12/25 06:54:22;;;;;;;6.28;3.72;;;;;;;;;;5072648;28;20031;-64
2021/12/25 06:56:49;;;;;;;8.77;3.97;;;;;;;;;;5072510;28;20028;-64
2021/12/25 06:59:16;;;;;;;6.65;3.38;;;;;;;;;;5072384;28;20092;-64
2021/12/25 07:01:42;;;;;;;5.55;2.92;;;;;;;;;;5072153;28;20075;-68
2021/12/25 07:04:08;;;;;;;5.32;2.88;;;;;;;;;;5072132;28;20048;-65
2021/12/25 07:06:35;;;;;;;6.38;2.95;;;;;;;;;;5074810;28;20074;-63
2021/12/25 07:09:01;;;;;;;4.90;2.28;;;;;;;;;;5092729;28;20016;-64
2021/12/25 07:11:27;;;;;;;5.07;2.75;;;;;;;;;;5085840;28;20056;-65
2021/12/25 07:13:53;;;;;;;5.45;2.60;;;;;;;;;;5092389;28;20020;-67
2021/12/25 07:16:20;;;;;;;7.95;2.50;;;;;;;;;;5089325;28;20039;-65
2021/12/25 07:18:46;;;;;;;9.20;2.60;;;;;;;;;;5092124;28;20095;-64
2021/12/25 07:21:12;;;;;;;7.78;2.40;;;;;;;;;;5090725;28;20036;-69
2021/12/25 07:23:38;;;;;;;6.03;2.60;;;;;;;;;;5092122;28;20567;-70
2021/12/25 07:26:04;;;;;;;5.95;2.60;;;;;;;;;;5092333;28;20039;-66
2021/12/25 07:28:30;;;;;;;8.02;2.45;;;;;;;;;;5083827;28;20043;-68
2021/12/25 07:30:58;;;;;;;7.75;2.35;;;;;;;;;;5091851;28;20043;-64
2021/12/25 07:33:24;;;;;;;4.38;2.22;;;;;;;;;;5091716;28;20020;-69
2021/12/25 07:35:50;;;;;;;5.55;2.42;;;;;;;;;;5090932;28;20430;-64
2021/12/25 07:38:18;;;;;;;5.55;2.78;;;;;;;;;;5091546;28;20408;-67
2021/12/25 07:40:45;;;;;;;4.45;2.22;;;;;;;;;;5091636;28;20464;-66
2021/12/25 07:43:11;;;;;;;4.70;2.47;;;;;;;;;;5088517;28;20028;-68
2021/12/25 07:45:37;;;;;;;5.13;2.67;;;;;;;;;;5086563;28;20016;-62
2021/12/25 07:48:03;;;;;;;4.63;2.20;;;;;;;;;;5090422;28;20088;-68
2021/12/25 07:50:31;;;;;;;4.75;2.40;;;;;;;;;;5090536;28;20023;-63
2021/12/25 07:52:57;;;;;;;5.07;2.45;;;;;;;;;;5091475;28;20026;-62
2021/12/25 07:55:24;;;;;;;5.13;2.28;;;;;;;;;;5091808;28;20575;-66
2021/12/25 07:57:50;;;;;;;5.15;2.35;;;;;;;;;;5091875;28;20027;-68
2021/12/25 08:00:17;;;;;;;4.68;2.40;;;;;;;;;;5091770;28;20024;-66
2021/12/25 08:02:44;;;;;;;5.32;2.47;;;;;;;;;;5091639;28;20028;-65
2021/12/25 08:05:11;;;;;;;4.68;2.33;;;;;;;;;;5091714;28;20377;-64
2021/12/25 08:07:37;;;;;;;4.22;2.45;;;;;;;;;;5091698;28;20027;-64
2021/12/25 08:10:13;;;;;;;5.70;2.45;;;;;;;;;;5091254;28;20042;-64
2021/12/25 08:12:50;;;;;;;5.50;2.53;;;;;;;;;;5091437;28;20503;-65
2021/12/25 08:15:18;;;;;;;3.97;2.20;;;;;;;;;;5091492;28;20027;-65
2021/12/25 08:17:45;;;;;;;5.25;2.55;;;;;;;;;;5091587;28;20520;-65
2021/12/25 08:20:13;;;;;;;5.15;2.53;;;;;;;;;;5091600;28;20097;-64
2021/12/25 08:22:41;;;;;;;5.78;2.15;;;;;;;;;;5091415;28;20450;-65
2021/12/25 08:25:08;;;;;;;4.22;2.20;;;;;;;;;;5091494;28;20020;-65
2021/12/25 08:27:34;;;;;;;5.18;2.47;;;;;;;;;;5090477;28;20028;-64
2021/12/25 08:30:00;;;;;;;6.15;3.08;;;;;;;;;;5091709;28;20043;-64
2021/12/25 08:32:26;;;;;;;4.30;2.25;;;;;;;;;;5091676;28;20025;-70
2021/12/25 08:34:52;;;;;;;7.25;2.75;;;;;;;;;;5091210;28;20024;-69
2021/12/25 08:37:22;;;;;;;5.60;2.97;;;;;;;;;;5090302;28;20081;-70
2021/12/25 08:39:49;;;;;;;5.47;2.75;;;;;;;;;;5091409;28;20349;-70
2021/12/25 08:42:15;;;;;;;4.75;2.40;;;;;;;;;;5091110;28;20029;-69
2021/12/25 08:44:54;;;;;;;4.47;2.33;;;;;;;;;;5091518;28;20020;-68
2021/12/25 08:47:20;;;;;;;4.95;2.88;;;;;;;;;;5092268;28;20028;-69
2021/12/25 08:49:46;;;;;;;5.60;2.60;;;;;;;;;;5093865;28;20044;-69
2021/12/25 08:52:14;;;;;;;5.25;2.63;;;;;;;;;;5094974;28;20024;-62
2021/12/25 08:54:40;;;;;;;5.65;2.88;;;;;;;;;;5094857;28;20091;-66
2021/12/25 08:57:07;;;;;;;7.78;2.78;;;;;;;;;;5094624;28;20020;-64
2021/12/25 08:59:34;;;;;;;6.07;2.88;;;;;;;;;;5094917;28;20027;-65
2021/12/25 09:02:05;;;;;;;5.68;2.97;;;;;;;;;;5093472;28;20592;-67
2021/12/25 09:04:32;;;;;;;4.30;2.30;;;;;;;;;;5094758;28;20410;-64
2021/12/25 09:06:59;;;;;;;5.47;2.67;;;;;;;;;;5094725;28;20058;-68
2021/12/25 09:09:25;;;;;;;5.55;3.10;;;;;;;;;;5094757;28;20435;-69
2021/12/25 09:11:51;;;;;;;4.93;2.90;;;;;;;;;;5094648;28;20077;-64
2021/12/25 09:14:17;;;;;;;5.78;2.80;;;;;;;;;;5094575;28;20610;-66
2021/12/25 09:16:43;;;;;;;7.43;3.08;;;;;;;;;;5089011;28;20127;-64
2021/12/25 09:19:09;;;;;;;7.90;3.08;;;;;;;;;;5094468;28;20028;-73
2021/12/25 09:21:35;;;;;;;6.22;3.35;;;;;;;;;;5093056;28;20038;-65
2021/12/25 09:24:02;;;;;;;8.48;3.55;;;;;;;;;;5094250;28;20054;-67
2021/12/25 09:26:28;;;;;;;5.63;3.58;;;;;;;;;;5086399;28;20046;-69
2021/12/25 09:28:54;;;;;;;7.68;3.22;;;;;;;;;;5081751;28;20615;-65
2021/12/25 09:31:20;;;;;;;5.53;3.20;;;;;;;;;;5073511;28;20091;-71
2021/12/25 09:33:46;;;;;;;7.03;2.88;;;;;;;;;;5089671;28;20082;-71
2021/12/25 09:36:12;;;;;;;5.75;3.33;;;;;;;;;;5093822;28;20024;-72
2021/12/25 09:38:38;;;;;;;6.70;3.38;;;;;;;;;;5093669;28;20020;-67
2021/12/25 09:41:05;;;;;;;8.43;3.78;;;;;;;;;;5093708;28;20062;-69
2021/12/25 09:43:31;;;;;;;7.45;3.35;;;;;;;;;;5093794;28;20607;-70
2021/12/25 09:45:58;;;;;;;8.73;3.40;;;;;;;;;;5093761;28;20036;-68
2021/12/25 09:48:24;;;;;;;19.20;4.78;;;;;;;;;;5093758;28;20012;-71
2021/12/25 09:50:51;;;;;;;19.58;5.40;;;;;;;;;;5093587;28;20099;-72
2021/12/25 09:53:18;;;;;;;17.85;5.40;;;;;;;;;;5093590;28;20020;-67
2021/12/25 09:55:45;;;;;;;17.02;4.75;;;;;;;;;;5093643;28;20412;-66
2021/12/25 09:58:11;;;;;;;16.95;5.55;;;;;;;;;;5093548;28;20023;-72
2021/12/25 10:00:40;;;;;;;11.50;4.57;;;;;;;;;;5092499;28;20027;-70
2021/12/25 10:03:06;;;;;;;13.50;4.40;;;;;;;;;;5093427;28;20035;-75
2021/12/25 10:05:36;;;;;;;12.48;4.63;;;;;;;;;;5093076;28;20508;-75
2021/12/25 10:08:04;;;;;;;15.25;4.85;;;;;;;;;;5093156;28;20094;-67
2021/12/25 10:10:59;;;;;;;8.43;4.30;;;;;;;;;;5080110;28;20016;-72
2021/12/25 10:13:25;;;;;;;12.32;4.78;;;;;;;;;;5070575;28;20036;-72
2021/12/25 10:15:52;;;;;;;13.15;5.38;;;;;;;;;;5072598;28;20017;-69
2021/12/25 10:18:25;;;;;;;13.10;5.07;;;;;;;;;;5091947;28;20411;-70
2021/12/25 10:20:52;;;;;;;13.38;4.28;;;;;;;;;;5092881;28;20059;-69
2021/12/25 10:23:25;;;;;;;10.00;4.40;;;;;;;;;;5092968;28;20024;-73
2021/12/25 10:25:58;;;;;;;17.30;4.57;;;;;;;;;;5092971;28;20019;-74
2021/12/25 10:28:26;;;;;;;14.80;4.97;;;;;;;;;;5093045;28;20051;-73
2021/12/25 10:30:58;;;;;;;13.02;4.80;;;;;;;;;;5092660;28;20424;-74
2021/12/25 10:33:24;;;;;;;11.88;5.38;;;;;;;;;;5091591;28;20042;-74
2021/12/25 10:35:50;;;;;;;12.98;4.13;;;;;;;;;;5091175;28;20545;-73
2021/12/25 10:38:17;;;;;;;16.15;4.55;;;;;;;;;;5092689;28;20057;-74
2021/12/25 10:40:44;;;;;;;14.35;4.30;;;;;;;;;;5092663;28;20020;-73
2021/12/25 10:43:19;;;;;;;13.55;4.38;;;;;;;;;;5091621;28;20020;-73
2021/12/25 10:45:58;;;;;;;10.27;4.68;;;;;;;;;;5092476;28;20095;-71
2021/12/25 10:48:31;;;;;;;11.48;4.68;;;;;;;;;;5092547;28;20136;-73
2021/12/25 10:50:58;;;;;;;10.65;4.63;;;;;;;;;;5092269;28;20369;-74
2021/12/25 10:53:26;;;;;;;11.05;4.32;;;;;;;;;;5092629;28;20024;-71
2021/12/25 10:55:53;;;;;;;10.35;4.88;;;;;;;;;;5092430;28;20411;-72
2021/12/25 10:58:20;;;;;;;11.93;4.63;;;;;;;;;;5092600;28;20028;-73
2021/12/25 11:00:51;;;;;;;9.50;4.05;;;;;;;;;;5090943;28;20115;-70
2021/12/25 11:03:25;;;;;;;8.32;4.28;;;;;;;;;;5092232;28;20038;-70
2021/12/25 11:05:51;;;;;;;8.43;4.38;;;;;;;;;;5092367;28;20024;-72
2021/12/25 11:08:24;;;;;;;11.98;4.18;;;;;;;;;;5092207;28;20020;-72
2021/12/25 11:10:50;;;;;;;7.57;4.47;;;;;;;;;;5090185;28;20027;-72
2021/12/25 11:13:19;;;;;;;7.97;4.13;;;;;;;;;;5091935;28;20061;-73
2021/12/25 11:15:46;;;;;;;7.38;3.78;;;;;;;;;;5091893;28;20024;-73
2021/12/25 11:18:13;;;;;;;8.70;5.03;;;;;;;;;;5082284;28;20028;-74
2021/12/25 11:20:40;;;;;;;9.77;4.60;;;;;;;;;;5071768;28;20059;-73
2021/12/25 11:23:07;;;;;;;10.00;4.55;;;;;;;;;;5071997;28;20028;-70
2021/12/25 11:25:34;;;;;;;9.07;4.70;;;;;;;;;;5071940;28;20017;-72
2021/12/25 11:28:01;;;;;;;8.68;3.88;;;;;;;;;;5071836;28;20032;-72
2021/12/25 11:30:30;;;;;;;7.32;4.00;;;;;;;;;;5071849;28;20023;-72
2021/12/25 11:32:57;;;;;;;6.78;3.92;;;;;;;;;;5071522;28;20106;-71
2021/12/25 11:35:23;;;;;;;7.15;3.95;;;;;;;;;;5071609;28;20009;-74
2021/12/25 11:37:50;;;;;;;6.80;4.05;;;;;;;;;;5071945;28;20035;-72
2021/12/25 11:40:17;;;;;;;7.32;4.18;;;;;;;;;;5071793;28;20020;-70
2021/12/25 11:42:45;;;;;;;8.70;4.78;;;;;;;;;;5071322;28;20036;-74
2021/12/25 11:45:12;;;;;;;8.13;4.60;;;;;;;;;;5070232;28;20122;-71
2021/12/25 11:47:51;;;;;;;9.00;4.40;;;;;;;;;;5071472;28;20032;-70
2021/12/25 11:50:33;;;;;;;8.93;4.85;;;;;;;;;;5071675;28;20095;-74
2021/12/25 11:53:30;;;;;;;8.52;4.80;;;;;;;;;;5071470;28;20712;-72
2021/12/25 11:58:39;;;;;;;8.90;4.45;;;;;;;;;;5071627;28;20161;-73
2021/12/25 12:01:20;;;;;;;7.72;4.10;;;;;;;;;;5071620;28;20093;-73
2021/12/25 12:03:52;;;;;;;8.70;4.57;;;;;;;;;;5071348;28;20032;-73
2021/12/25 12:06:19;;;;;;;7.63;4.10;;;;;;;;;;5071610;28;20020;-74
2021/12/25 12:09:12;;;;;;;8.40;4.60;;;;;;;;;;5071457;28;20373;-74
2021/12/25 12:11:40;;;;;;;;;;;;;;;;;;5068704;28;20160;-74
2021/12/25 12:14:13;;;;;;;6.35;3.65;;;;;;;;;;5070044;28;20323;-72
2021/12/25 12:16:44;;;;;;;7.40;4.60;;;;;;;;;;5070971;28;20059;-73
2021/12/25 12:19:29;;;;;;;9.02;3.70;;;;;;;;;;5071172;28;20020;-71
2021/12/25 12:21:55;;;;;;;6.80;4.03;;;;;;;;;;5090952;28;20392;-71
2021/12/25 12:24:46;;;;;;;7.22;3.92;;;;;;;;;;5095183;28;20059;-72
2021/12/25 12:27:12;;;;;;;6.65;3.92;;;;;;;;;;5094046;28;20122;-73
2021/12/25 12:29:39;;;;;;;9.55;4.50;;;;;;;;;;5094007;28;20020;-73
2021/12/25 12:32:06;;;;;;;8.25;4.10;;;;;;;;;;5095189;28;20051;-73
2021/12/25 12:34:40;;;;;;;7.22;4.03;;;;;;;;;;5095235;28;20020;-73
2021/12/25 12:37:19;;;;;;;6.78;3.75;;;;;;;;;;5093727;28;20051;-71
2021/12/25 12:39:45;;;;;;;6.50;4.18;;;;;;;;;;5095020;28;20473;-74
2021/12/25 12:42:13;;;;;;;7.32;4.13;;;;;;;;;;5094936;28;20036;-74
2021/12/25 12:44:40;;;;;;;7.47;3.60;;;;;;;;;;5095063;28;20361;-74
2021/12/25 12:47:13;;;;;;;7.90;4.05;;;;;;;;;;5094888;28;20020;-73
2021/12/25 12:49:39;;;;;;;7.20;4.43;;;;;;;;;;5094760;28;20464;-68
2021/12/25 12:52:24;;;;;;;7.93;4.53;;;;;;;;;;5093532;28;20023;-69
2021/12/25 12:54:50;;;;;;;5.95;3.63;;;;;;;;;;5093471;28;20142;-74
2021/12/25 12:57:17;;;;;;;6.20;3.70;;;;;;;;;;5094573;28;20028;-72
2021/12/25 12:59:43;;;;;;;6.38;3.88;;;;;;;;;;5094677;28;20280;-71
2021/12/25 13:02:10;;;;;;;6.47;3.78;;;;;;;;;;5094492;28;20476;-72
2021/12/25 13:04:50;;;;;;;9.38;3.63;;;;;;;;;;5094454;28;20016;-74
2021/12/25 13:07:17;;;;;;;6.95;4.18;;;;;;;;;;5094442;28;20066;-73
2021/12/25 13:09:52;;;;;;;7.53;4.07;;;;;;;;;;5093095;28;20020;-70
2021/12/25 13:12:51;;;;;;;8.75;4.80;;;;;;;;;;5094278;28;20021;-70
2021/12/25 13:15:20;;;;;;;8.27;4.30;;;;;;;;;;5093809;28;20024;-72
2021/12/25 13:17:51;;;;;;;6.38;3.78;;;;;;;;;;5094255;28;20048;-70
2021/12/25 13:20:17;;;;;;;7.57;4.35;;;;;;;;;;5088118;28;20472;-72
2021/12/25 13:22:43;;;;;;;9.07;4.68;;;;;;;;;;5073684;28;20043;-70
2021/12/25 13:25:13;;;;;;;7.38;4.43;;;;;;;;;;5073886;28;20052;-70
2021/12/25 13:27:40;;;;;;;6.35;3.65;;;;;;;;;;5073937;28;20020;-70
2021/12/25 13:30:17;;;;;;;6.93;4.50;;;;;;;;;;5073921;28;20017;-72
2021/12/25 13:32:44;;;;;;;7.07;4.15;;;;;;;;;;5073705;28;20032;-73
2021/12/25 13:35:12;;;;;;;6.80;4.22;;;;;;;;;;5072852;28;20477;-73
2021/12/25 13:37:38;;;;;;;7.43;4.05;;;;;;;;;;5073846;28;20038;-72
2021/12/25 13:40:08;;;;;;;8.50;4.22;;;;;;;;;;5073870;28;20056;-73
2021/12/25 13:42:34;;;;;;;8.23;4.13;;;;;;;;;;5073114;28;20035;-69
2021/12/25 13:45:00;;;;;;;9.73;4.30;;;;;;;;;;5073392;28;20538;-72
2021/12/25 13:47:28;;;;;;;8.63;4.22;;;;;;;;;;5073405;28;20028;-70
2021/12/25 13:49:55;;;;;;;5.95;3.92;;;;;;;;;;5073416;28;20017;-70
2021/12/25 13:52:21;;;;;;;6.93;4.38;;;;;;;;;;5073468;28;20099;-72
2021/12/25 13:55:11;;;;;;;7.00;4.53;;;;;;;;;;5073248;28;20064;-72
2021/12/25 13:57:40;;;;;;;7.38;4.45;;;;;;;;;;5073443;28;20437;-73
2021/12/25 14:00:12;;;;;;;6.90;4.10;;;;;;;;;;5073308;28;20036;-73
2021/12/25 14:02:40;;;;;;;6.80;4.25;;;;;;;;;;5073293;28;20036;-72
2021/12/25 14:05:07;;;;;;;8.45;4.35;;;;;;;;;;5073251;28;20092;-70
2021/12/25 14:07:34;;;;;;;7.18;4.32;;;;;;;;;;5072875;28;20028;-70
2021/12/25 14:10:01;;;;;;;5.97;4.05;;;;;;;;;;5073091;28;20137;-73
2021/12/25 14:12:28;;;;;;;6.45;4.10;;;;;;;;;;5072815;28;20031;-70
2021/12/25 14:14:55;;;;;;;6.97;3.35;;;;;;;;;;5072698;28;20117;-72
2021/12/25 14:17:22;;;;;;;6.53;4.03;;;;;;;;;;5071418;28;20071;-72
2021/12/25 14:19:48;;;;;;;6.55;4.10;;;;;;;;;;5074683;28;20021;-73
2021/12/25 14:22:16;;;;;;;5.93;3.38;;;;;;;;;;5092734;28;20530;-74
2021/12/25 14:24:47;;;;;;;6.78;4.05;;;;;;;;;;5091779;28;20495;-72
2021/12/25 14:27:17;;;;;;;6.80;4.22;;;;;;;;;;5091764;28;20020;-72
2021/12/25 14:29:44;;;;;;;8.23;4.55;;;;;;;;;;5093175;28;20032;-68
2021/12/25 14:32:23;;;;;;;5.72;3.92;;;;;;;;;;5092898;28;20020;-73
2021/12/25 14:34:50;;;;;;;6.35;4.18;;;;;;;;;;5092483;28;20028;-70
2021/12/25 14:37:16;;;;;;;7.53;4.28;;;;;;;;;;5092678;28;20024;-73
2021/12/25 14:39:43;;;;;;;8.10;4.07;;;;;;;;;;5092716;28;20024;-70
2021/12/25 14:42:09;;;;;;;7.30;4.53;;;;;;;;;;5092647;28;20032;-73
2021/12/25 14:44:35;;;;;;;6.03;3.85;;;;;;;;;;5092650;28;20136;-73
2021/12/25 14:47:06;;;;;;;7.22;4.18;;;;;;;;;;5092485;28;20413;-72
2021/12/25 14:49:39;;;;;;;8.73;3.97;;;;;;;;;;5092614;28;20055;-73
2021/12/25 14:52:05;;;;;;;6.60;4.22;;;;;;;;;;5091198;28;20082;-73
2021/12/25 14:54:31;;;;;;;6.10;4.00;;;;;;;;;;5092622;28;20031;-69
2021/12/25 14:56:58;;;;;;;8.55;4.88;;;;;;;;;;5091167;28;20023;-69
2021/12/25 14:59:26;;;;;;;6.05;3.83;;;;;;;;;;5092740;28;20507;-72
2021/12/25 15:01:53;;;;;;;7.00;4.45;;;;;;;;;;5092258;28;20392;-71
2021/12/25 15:04:25;;;;;;;6.35;3.97;;;;;;;;;;5092489;28;20016;-72
2021/12/25 15:06:59;;;;;;;7.35;4.45;;;;;;;;;;5092265;28;20024;-72
2021/12/25 15:09:31;;;;;;;7.22;4.30;;;;;;;;;;5092384;28;20095;-73
2021/12/25 15:12:03;;;;;;;6.32;4.22;;;;;;;;;;5090918;28;20054;-70
2021/12/25 15:14:31;;;;;;;6.95;4.40;;;;;;;;;;5091003;28;20024;-69
2021/12/25 15:16:58;;;;;;;7.40;4.00;;;;;;;;;;5092033;28;20052;-72
2021/12/25 15:19:26;;;;;;;6.90;4.07;;;;;;;;;;5074249;28;20085;-73
2021/12/25 15:21:52;;;;;;;6.80;4.20;;;;;;;;;;5071250;28;20091;-73
2021/12/25 15:24:20;;;;;;;7.50;4.47;;;;;;;;;;5071690;28;20020;-70
2021/12/25 15:26:47;;;;;;;8.32;4.53;;;;;;;;;;5071367;28;20041;-74
2021/12/25 15:29:14;;;;;;;8.73;5.05;;;;;;;;;;5071352;28;20017;-73
2021/12/25 15:31:40;;;;;;;8.00;5.35;;;;;;;;;;5070178;28;20381;-72
2021/12/25 15:34:07;;;;;;;8.98;5.18;;;;;;;;;;5071576;28;20096;-69
2021/12/25 15:36:37;;;;;;;7.93;4.70;;;;;;;;;;5071614;28;20392;-73
2021/12/25 15:39:09;;;;;;;8.88;5.13;;;;;;;;;;5071619;28;20013;-67
2021/12/25 15:41:35;;;;;;;8.60;5.55;;;;;;;;;;5071398;28;20074;-70
2021/12/25 15:44:02;;;;;;;9.25;5.80;;;;;;;;;;5071710;28;20028;-71
2021/12/25 15:46:28;;;;;;;9.30;5.85;;;;;;;;;;5071521;28;20549;-67
2021/12/25 15:48:54;;;;;;;9.18;5.45;;;;;;;;;;5071162;28;20021;-72
2021/12/25 15:51:20;;;;;;;9.45;5.97;;;;;;;;;;5070004;28;20032;-72
2021/12/25 15:53:46;;;;;;;8.10;5.70;;;;;;;;;;5071026;28;20024;-72
2021/12/25 15:56:12;;;;;;;9.40;6.22;;;;;;;;;;5071207;28;20081;-72
2021/12/25 15:58:38;;;;;;;9.82;5.85;;;;;;;;;;5072882;28;20043;-69
2021/12/25 16:01:05;;;;;;;8.30;5.63;;;;;;;;;;5075108;28;20537;-73
2021/12/25 16:03:33;;;;;;;8.25;5.63;;;;;;;;;;5075524;28;20783;-73
2021/12/25 16:05:59;;;;;;;8.77;5.90;;;;;;;;;;5075315;28;20016;-74
2021/12/25 16:08:25;;;;;;;9.80;6.88;;;;;;;;;;5075254;28;20141;-73